createdAt,value
2022-09-05T00:01:48.771Z,14.25
2022-09-05T00:04:24.653Z,14.30
2022-09-05T00:07:02.797Z,14.23
2022-09-05T00:09:38.150Z,14.22
2022-09-05T00:12:06.596Z,14.11
2022-09-05T00:15:16.245Z,14.07
2022-09-05T00:19:45.135Z,14.17
2022-09-05T00:24:21.888Z,14.17
2022-09-05T00:24:27.146Z,14.19
2022-09-05T00:27:13.718Z,14.15
2022-09-05T00:31:06.958Z,13.98
2022-09-05T00:33:17.018Z,13.99
2022-09-05T00:36:11.126Z,13.90
2022-09-05T00:38:41.382Z,13.72
2022-09-05T00:41:12.843Z,13.37
2022-09-05T00:43:43.159Z,13.67
2022-09-05T00:46:22.764Z,13.60
2022-09-05T00:48:57.269Z,13.61
2022-09-05T00:51:34.424Z,13.75
2022-09-05T00:54:18.841Z,13.71
2022-09-05T00:57:05.340Z,13.69
2022-09-05T00:59:58.948Z,13.63
2022-09-05T01:02:33.347Z,13.68
2022-09-05T01:05:15.278Z,13.61
2022-09-05T01:08:01.990Z,13.62
2022-09-05T01:10:53.764Z,13.62
2022-09-05T01:14:00.486Z,13.66
2022-09-05T01:16:43.058Z,13.53
2022-09-05T01:19:17.727Z,13.58
2022-09-05T01:22:22.871Z,13.64
2022-09-05T01:24:54.662Z,13.65
2022-09-05T01:28:34.291Z,13.49
2022-09-05T01:31:09.473Z,13.41
2022-09-05T01:33:50.989Z,13.27
2022-09-05T01:36:41.041Z,13.50
2022-09-05T01:40:11.042Z,13.47
2022-09-05T01:42:36.993Z,13.53
2022-09-05T01:45:21.834Z,13.38
2022-09-05T01:48:02.835Z,13.16
2022-09-05T01:50:51.932Z,13.26
2022-09-05T01:53:38.746Z,13.30
2022-09-05T01:56:43.329Z,13.29
2022-09-05T01:59:25.466Z,13.02
2022-09-05T02:02:01.376Z,13.07
2022-09-05T02:05:06.062Z,12.88
2022-09-05T02:07:50.661Z,12.93
2022-09-05T02:11:06.554Z,12.73
2022-09-05T02:13:36.701Z,12.56
2022-09-05T02:16:05.978Z,12.45
2022-09-05T02:18:54.125Z,12.60
2022-09-05T02:21:56.562Z,12.67
2022-09-05T02:24:34.439Z,12.81
2022-09-05T02:27:33.766Z,12.74
2022-09-05T02:30:23.513Z,12.76
2022-09-05T02:33:02.330Z,12.84
2022-09-05T02:35:31.557Z,12.26
2022-09-05T02:40:34.657Z,12.43
2022-09-05T02:45:06.000Z,12.84
2022-09-05T02:45:11.149Z,12.77
2022-09-05T02:47:22.569Z,12.90
2022-09-05T02:53:59.270Z,12.91
2022-09-05T02:57:24.609Z,12.80
2022-09-05T02:57:39.932Z,12.74
2022-09-05T02:59:15.795Z,12.64
2022-09-05T03:01:56.580Z,12.50
2022-09-05T03:04:49.480Z,12.33
2022-09-05T03:07:41.311Z,12.41
2022-09-05T03:10:54.469Z,12.32
2022-09-05T03:14:06.402Z,12.40
2022-09-05T03:16:51.598Z,12.53
2022-09-05T03:19:46.593Z,12.41
2022-09-05T03:22:37.230Z,12.24
2022-09-05T03:25:30.543Z,12.27
2022-09-05T03:28:34.701Z,12.23
2022-09-05T03:31:25.798Z,12.36
2022-09-05T03:33:58.096Z,12.37
2022-09-05T03:37:06.034Z,12.40
2022-09-05T03:40:15.404Z,12.24
2022-09-05T03:43:21.337Z,12.32
2022-09-05T03:46:08.902Z,12.28
2022-09-05T03:48:53.752Z,12.38
2022-09-05T03:57:04.494Z,12.37
2022-09-05T03:57:15.452Z,12.31
2022-09-05T03:57:59.169Z,12.13
2022-09-05T04:00:37.038Z,12.02
2022-09-05T04:08:10.538Z,11.84
2022-09-05T04:08:19.742Z,11.77
2022-09-05T04:09:01.834Z,11.75
2022-09-05T04:11:35.592Z,11.66
2022-09-05T04:14:10.086Z,11.74
2022-09-05T04:16:51.559Z,11.83
2022-09-05T04:19:28.790Z,11.87
2022-09-05T04:22:09.931Z,11.77
2022-09-05T04:24:49.117Z,12.01
2022-09-05T04:27:28.139Z,11.98
2022-09-05T04:29:59.211Z,11.92
2022-09-05T04:32:40.883Z,11.89
2022-09-05T04:35:07.268Z,11.80
2022-09-05T04:37:48.858Z,11.81
2022-09-05T04:40:33.894Z,11.89
2022-09-05T04:43:08.462Z,11.94
2022-09-05T04:45:42.550Z,11.86
2022-09-05T04:48:14.998Z,11.85
2022-09-05T04:51:22.666Z,11.45
2022-09-05T04:54:14.941Z,11.93
2022-09-05T04:56:47.283Z,11.70
2022-09-05T05:01:03.104Z,11.66
2022-09-05T05:06:13.103Z,11.60
2022-09-05T05:06:18.348Z,11.73
2022-09-05T05:08:38.101Z,11.82
2022-09-05T05:17:29.890Z,11.92
2022-09-05T05:18:08.472Z,11.92
2022-09-05T05:18:10.725Z,11.95
2022-09-05T05:20:40.658Z,11.92
2022-09-05T05:23:08.323Z,12.00
2022-09-05T05:25:56.998Z,12.01
2022-09-05T05:28:50.053Z,11.82
2022-09-05T05:31:38.090Z,11.82
2022-09-05T05:34:24.709Z,11.80
2022-09-05T05:37:31.964Z,12.09
2022-09-05T05:40:02.731Z,12.41
2022-09-05T05:42:29.567Z,12.58
2022-09-05T05:44:58.952Z,12.76
2022-09-05T05:47:37.938Z,12.84
2022-09-05T05:50:38.609Z,13.17
2022-09-05T05:53:43.360Z,13.59
2022-09-05T05:56:35.034Z,13.94
2022-09-05T05:59:37.250Z,14.48
2022-09-05T06:02:35.994Z,15.07
2022-09-05T06:05:41.288Z,15.80
2022-09-05T06:10:35.408Z,16.27
2022-09-05T06:14:56.250Z,16.18
2022-09-05T06:15:07.079Z,16.83
2022-09-05T06:17:48.252Z,16.60
2022-09-05T06:22:06.749Z,17.05
2022-09-05T06:23:50.899Z,17.39
2022-09-05T06:26:24.849Z,17.75
2022-09-05T06:29:03.185Z,18.09
2022-09-05T06:31:42.133Z,18.42
2022-09-05T06:34:35.191Z,18.72
2022-09-05T06:37:21.199Z,19.08
2022-09-05T06:40:00.302Z,19.29
2022-09-05T06:42:44.913Z,19.37
2022-09-05T06:45:34.563Z,19.33
2022-09-05T06:48:36.618Z,19.18
2022-09-05T06:51:44.861Z,19.58
2022-09-05T06:54:26.757Z,19.88
2022-09-05T06:57:22.865Z,20.25
2022-09-05T07:00:04.537Z,20.35
2022-09-05T07:02:58.413Z,20.60
2022-09-05T07:05:44.816Z,20.78
2022-09-05T07:08:36.569Z,21.08
2022-09-05T07:11:34.539Z,21.41
2022-09-05T07:14:25.890Z,21.45
2022-09-05T07:17:08.564Z,21.67
2022-09-05T07:20:03.506Z,21.95
2022-09-05T07:22:49.262Z,22.07
2022-09-05T07:25:21.205Z,22.34
2022-09-05T07:28:29.607Z,22.27
2022-09-05T07:31:02.317Z,22.63
2022-09-05T07:33:31.224Z,22.94
2022-09-05T07:36:09.718Z,22.91
2022-09-05T07:38:55.290Z,22.89
2022-09-05T07:41:29.553Z,22.72
2022-09-05T07:44:15.591Z,22.95
2022-09-05T07:46:45.958Z,23.28
2022-09-05T07:49:18.459Z,23.31
2022-09-05T07:56:53.780Z,23.64
2022-09-05T07:57:07.807Z,24.09
2022-09-05T07:57:50.739Z,24.55
2022-09-05T08:00:26.896Z,24.84
2022-09-05T08:02:59.166Z,25.16
2022-09-05T08:05:35.214Z,25.38
2022-09-05T08:08:07.908Z,25.66
2022-09-05T08:11:23.514Z,25.84
2022-09-05T08:13:42.566Z,26.02
2022-09-05T08:16:17.416Z,26.21
2022-09-05T08:19:10.463Z,26.44
2022-09-05T08:21:50.514Z,26.56
2022-09-05T08:24:28.726Z,26.69
2022-09-05T08:27:10.155Z,26.76
2022-09-05T08:29:48.252Z,26.93
2022-09-05T08:32:46.832Z,27.03
2022-09-05T08:35:19.452Z,27.09
2022-09-05T08:37:48.087Z,27.16
2022-09-05T08:40:37.098Z,27.28
2022-09-05T08:46:36.372Z,27.42
2022-09-05T08:46:49.136Z,27.58
2022-09-05T08:49:45.557Z,27.56
2022-09-05T08:52:33.050Z,27.59
2022-09-05T08:55:19.656Z,27.56
2022-09-05T08:57:46.390Z,27.81
2022-09-05T09:00:24.261Z,28.05
2022-09-05T09:03:04.913Z,28.44
2022-09-05T09:06:14.457Z,28.17
2022-09-05T09:09:02.094Z,28.41
2022-09-05T09:11:37.206Z,28.45
2022-09-05T09:14:35.406Z,28.62
2022-09-05T09:17:10.680Z,28.84
2022-09-05T09:19:49.641Z,28.88
2022-09-05T09:22:34.241Z,29.04
2022-09-05T09:25:42.843Z,29.00
2022-09-05T09:28:48.674Z,28.94
2022-09-05T09:31:37.150Z,29.13
2022-09-05T09:34:26.337Z,29.22
2022-09-05T09:37:13.181Z,29.36
2022-09-05T09:40:04.387Z,29.23
2022-09-05T09:42:50.873Z,29.30
2022-09-05T09:45:36.074Z,29.21
2022-09-05T09:48:17.665Z,28.97
2022-09-05T09:51:22.785Z,29.13
2022-09-05T09:54:28.312Z,28.97
2022-09-05T09:57:32.945Z,29.14
2022-09-05T10:00:24.139Z,29.47
2022-09-05T10:07:19.896Z,29.71
2022-09-05T10:10:48.194Z,29.66
2022-09-05T10:11:00.443Z,29.26
2022-09-05T10:12:46.555Z,29.36
2022-09-05T10:15:31.088Z,29.59
2022-09-05T10:18:21.922Z,29.74
2022-09-05T10:21:32.326Z,29.79
2022-09-05T10:24:37.638Z,29.70
2022-09-05T10:27:36.355Z,29.64
2022-09-05T10:30:03.387Z,29.67
2022-09-05T10:35:11.305Z,29.71
2022-09-05T10:35:34.693Z,29.60
2022-09-05T10:38:11.394Z,29.47
2022-09-05T10:41:16.134Z,29.65
2022-09-05T10:43:32.258Z,29.90
2022-09-05T10:46:04.553Z,30.02
2022-09-05T10:48:53.403Z,29.85
2022-09-05T10:51:37.835Z,29.88
2022-09-05T10:54:27.928Z,29.52
2022-09-05T10:57:31.421Z,29.13
2022-09-05T11:02:18.723Z,29.36
2022-09-05T11:03:00.638Z,28.74
2022-09-05T11:05:30.869Z,28.38
2022-09-05T11:08:03.724Z,28.39
2022-09-05T11:10:35.880Z,28.51
2022-09-05T11:13:18.001Z,28.72
2022-09-05T11:16:04.295Z,28.82
2022-09-05T11:19:02.131Z,28.97
2022-09-05T11:21:49.025Z,29.45
2022-09-05T11:24:48.738Z,29.69
2022-09-05T11:27:36.812Z,29.42
2022-09-05T11:30:07.231Z,29.53
2022-09-05T11:36:33.696Z,29.69
2022-09-05T11:39:46.605Z,29.80
2022-09-05T11:39:53.322Z,29.80
2022-09-05T11:42:20.503Z,29.89
2022-09-05T11:45:12.489Z,29.88
2022-09-05T11:48:03.876Z,29.93
2022-09-05T11:51:08.918Z,29.88
2022-09-05T11:53:59.760Z,29.90
2022-09-05T11:56:50.865Z,30.01
2022-09-05T11:59:34.646Z,30.07
2022-09-05T12:02:32.733Z,29.90
2022-09-05T12:05:48.649Z,29.84
2022-09-05T12:08:09.641Z,29.67
2022-09-05T12:11:02.741Z,29.46
2022-09-05T12:13:54.808Z,29.32
2022-09-05T12:16:40.394Z,29.32
2022-09-05T12:19:22.995Z,29.41
2022-09-05T12:22:08.775Z,29.22
2022-09-05T12:25:24.358Z,29.45
2022-09-05T12:27:45.995Z,29.52
2022-09-05T12:30:22.012Z,29.64
2022-09-05T12:36:04.622Z,29.09
2022-09-05T12:40:33.951Z,28.39
2022-09-05T12:41:42.574Z,28.06
2022-09-05T12:42:33.211Z,27.68
2022-09-05T12:45:31.746Z,27.28
2022-09-05T12:48:15.788Z,27.54
2022-09-05T12:50:55.936Z,27.53
2022-09-05T12:53:24.826Z,27.29
2022-09-05T12:57:15.240Z,27.18
2022-09-05T13:02:57.555Z,27.35
2022-09-05T13:03:13.271Z,27.39
2022-09-05T13:05:01.961Z,27.37
2022-09-05T13:07:46.925Z,27.40
2022-09-05T13:13:18.598Z,27.11
2022-09-05T13:15:01.159Z,27.22
2022-09-05T13:16:09.256Z,27.09
2022-09-05T13:18:57.106Z,26.80
2022-09-05T13:21:27.145Z,26.84
2022-09-05T13:24:11.992Z,26.93
2022-09-05T13:26:44.346Z,27.00
2022-09-05T13:29:21.185Z,27.12
2022-09-05T13:37:54.209Z,27.04
2022-09-05T13:38:11.855Z,26.93
2022-09-05T13:38:15.899Z,27.05
2022-09-05T13:40:20.421Z,27.06
2022-09-05T13:43:09.025Z,26.87
2022-09-05T13:45:45.574Z,26.80
2022-09-05T13:49:23.422Z,27.00
2022-09-05T13:51:36.077Z,27.28
2022-09-05T13:54:24.434Z,27.40
2022-09-05T13:57:32.684Z,27.45
2022-09-05T14:00:27.241Z,27.46
2022-09-05T14:03:39.329Z,27.33
2022-09-05T14:06:47.311Z,27.25
2022-09-05T14:09:46.478Z,27.08
2022-09-05T14:12:25.377Z,26.99
2022-09-05T14:15:09.353Z,26.80
2022-09-05T14:18:00.794Z,26.34
2022-09-05T14:21:02.004Z,26.32
2022-09-05T14:23:48.546Z,25.73
2022-09-05T14:26:23.606Z,25.69
2022-09-05T14:29:02.266Z,25.76
2022-09-05T14:37:37.322Z,25.94
2022-09-05T14:37:41.893Z,25.93
2022-09-05T14:38:15.923Z,25.92
2022-09-05T14:41:10.676Z,26.05
2022-09-05T14:44:02.129Z,25.94
2022-09-05T14:46:49.828Z,26.12
2022-09-05T14:49:39.983Z,26.25
2022-09-05T14:52:44.854Z,26.44
2022-09-05T15:02:46.198Z,25.65
2022-09-05T15:02:51.669Z,25.88
2022-09-05T15:06:36.490Z,26.02
2022-09-05T15:12:17.669Z,26.29
2022-09-05T15:12:25.815Z,26.25
2022-09-05T15:14:45.394Z,26.32
2022-09-05T15:17:22.653Z,26.29
2022-09-05T15:20:04.995Z,26.47
2022-09-05T15:22:35.405Z,26.34
2022-09-05T15:25:21.502Z,26.28
2022-09-05T15:27:49.532Z,26.29
2022-09-05T15:30:25.595Z,26.35
2022-09-05T15:33:31.390Z,26.42
2022-09-05T15:35:59.360Z,26.52
2022-09-05T15:38:30.495Z,26.59
2022-09-05T15:41:12.175Z,26.62
2022-09-05T15:43:53.077Z,26.64
2022-09-05T15:46:29.583Z,26.68
2022-09-05T15:49:03.834Z,26.60
2022-09-05T15:51:50.236Z,26.52
2022-09-05T15:54:37.589Z,26.48
2022-09-05T15:57:09.007Z,26.60
2022-09-05T15:59:49.295Z,26.44
2022-09-05T16:02:24.062Z,26.38
2022-09-05T16:10:27.035Z,26.18
2022-09-05T16:10:47.281Z,26.11
2022-09-05T16:11:20.419Z,26.29
2022-09-05T16:13:52.996Z,26.42
2022-09-05T16:23:11.644Z,26.40
2022-09-05T16:23:26.988Z,26.22
2022-09-05T16:23:30.904Z,26.38
2022-09-05T16:25:03.497Z,26.10
2022-09-05T16:27:47.069Z,26.14
2022-09-05T16:30:24.146Z,26.19
2022-09-05T16:32:57.117Z,26.14
2022-09-05T16:35:26.750Z,26.14
2022-09-05T16:38:02.095Z,26.07
2022-09-05T16:40:37.968Z,25.94
2022-09-05T16:43:18.233Z,25.96
2022-09-05T16:45:52.190Z,25.90
2022-09-05T16:48:30.296Z,25.81
2022-09-05T16:51:34.860Z,26.01
2022-09-05T16:54:24.377Z,25.89
2022-09-05T16:57:04.601Z,26.01
2022-09-05T16:59:34.818Z,25.92
2022-09-05T17:02:20.067Z,25.89
2022-09-05T17:05:03.127Z,25.85
2022-09-05T17:07:52.509Z,25.79
2022-09-05T17:10:24.696Z,25.79
2022-09-05T17:12:52.584Z,25.78
2022-09-05T17:15:26.076Z,25.64
2022-09-05T17:18:18.643Z,25.57
2022-09-05T17:20:53.957Z,25.54
2022-09-05T17:29:11.392Z,25.48
2022-09-05T17:29:33.947Z,25.36
2022-09-05T17:32:39.013Z,25.09
2022-09-05T17:35:42.159Z,25.10
2022-09-05T17:38:28.411Z,24.89
2022-09-05T17:41:34.170Z,24.88
2022-09-05T17:44:38.700Z,24.79
2022-09-05T17:47:27.481Z,24.79
2022-09-05T17:50:18.931Z,24.82
2022-09-05T17:52:54.683Z,24.70
2022-09-05T17:55:41.868Z,24.52
2022-09-05T17:58:20.922Z,24.41
2022-09-05T18:00:50.363Z,24.27
2022-09-05T18:03:38.546Z,24.10
2022-09-05T18:06:27.133Z,23.98
2022-09-05T18:08:53.692Z,24.04
2022-09-05T18:11:25.435Z,24.00
2022-09-05T18:14:02.457Z,23.96
2022-09-05T18:16:42.140Z,23.76
2022-09-05T18:19:34.183Z,23.71
2022-09-05T18:22:08.219Z,23.71
2022-09-05T18:24:53.075Z,23.51
2022-09-05T18:27:37.908Z,23.31
2022-09-05T18:30:18.566Z,23.38
2022-09-05T18:33:55.346Z,23.39
2022-09-05T18:35:53.582Z,23.35
2022-09-05T18:38:49.960Z,23.33
2022-09-05T18:41:18.307Z,23.18
2022-09-05T18:44:13.244Z,23.03
2022-09-05T18:46:50.089Z,22.80
2022-09-05T18:50:22.041Z,22.65
2022-09-05T18:52:32.698Z,22.23
2022-09-05T18:56:10.448Z,21.92
2022-09-05T18:57:59.050Z,22.00
2022-09-05T19:00:44.619Z,21.98
2022-09-05T19:03:19.436Z,21.99
2022-09-05T19:06:36.072Z,21.96
2022-09-05T19:08:54.820Z,21.95
2022-09-05T19:11:28.101Z,21.90
2022-09-05T19:14:25.308Z,21.77
2022-09-05T19:16:48.095Z,21.69
2022-09-05T19:19:24.503Z,21.46
2022-09-05T19:22:45.174Z,21.36
2022-09-05T19:24:46.275Z,21.36
2022-09-05T19:28:55.454Z,20.98
2022-09-05T19:36:56.641Z,20.60
2022-09-05T19:37:06.990Z,20.49
2022-09-05T19:37:08.708Z,20.66
2022-09-05T19:38:24.726Z,20.57
2022-09-05T19:47:34.630Z,20.46
2022-09-05T19:47:38.172Z,20.34
2022-09-05T19:47:44.521Z,20.32
2022-09-05T19:49:36.526Z,20.40
2022-09-05T19:52:17.934Z,20.37
2022-09-05T19:54:50.917Z,20.28
2022-09-05T19:57:21.851Z,20.28
2022-09-05T19:59:54.326Z,20.15
2022-09-05T20:02:26.520Z,20.26
2022-09-05T20:04:57.307Z,20.08
2022-09-05T20:07:29.282Z,20.03
2022-09-05T20:09:57.927Z,19.89
2022-09-05T20:12:33.353Z,19.79
2022-09-05T20:15:27.808Z,19.87
2022-09-05T20:18:27.305Z,19.85
2022-09-05T20:21:14.439Z,19.91
2022-09-05T20:23:51.409Z,19.87
2022-09-05T20:26:22.221Z,19.85
2022-09-05T20:28:54.677Z,19.75
2022-09-05T20:31:27.107Z,19.65
2022-09-05T20:34:03.503Z,19.60
2022-09-05T20:43:14.437Z,19.35
2022-09-05T20:43:19.264Z,19.52
2022-09-05T20:43:31.115Z,19.42
2022-09-05T20:45:42.964Z,19.21
2022-09-05T20:54:06.259Z,19.11
2022-09-05T20:54:25.732Z,19.06
2022-09-05T20:54:28.126Z,19.09
2022-09-05T20:56:32.914Z,19.08
2022-09-05T20:59:00.815Z,19.04
2022-09-05T21:01:28.171Z,19.02
2022-09-05T21:03:57.668Z,18.99
2022-09-05T21:06:26.487Z,18.89
2022-09-05T21:08:55.844Z,18.86
2022-09-05T21:11:32.668Z,18.62
2022-09-05T21:14:02.843Z,18.69
2022-09-05T21:16:34.204Z,18.55
2022-09-05T21:19:01.120Z,18.63
2022-09-05T21:21:30.647Z,18.67
2022-09-05T21:23:58.964Z,18.48
2022-09-05T21:26:32.237Z,18.48
2022-09-05T21:29:27.489Z,18.50
2022-09-05T21:32:01.755Z,18.36
2022-09-05T21:34:43.414Z,18.42
2022-09-05T21:37:14.413Z,18.41
2022-09-05T21:39:59.096Z,18.51
2022-09-05T21:44:05.775Z,18.36
2022-09-05T21:47:38.027Z,18.29
2022-09-05T21:48:06.198Z,18.20
2022-09-05T21:50:38.852Z,18.20
2022-09-05T21:53:21.446Z,18.11
2022-09-05T21:59:19.094Z,18.00
2022-09-05T21:59:27.322Z,17.99
2022-09-05T22:01:44.902Z,18.03
2022-09-05T22:04:16.744Z,18.12
2022-09-05T22:06:48.190Z,17.99
2022-09-05T22:09:19.538Z,18.02
2022-09-05T22:11:52.368Z,18.04
2022-09-05T22:14:22.198Z,17.84
2022-09-05T22:16:51.455Z,17.90
2022-09-05T22:19:26.134Z,17.55
2022-09-05T22:22:15.468Z,17.64
2022-09-05T22:24:55.290Z,17.42
2022-09-05T22:27:25.912Z,17.52
2022-09-05T22:29:52.897Z,17.56
2022-09-05T22:32:34.689Z,17.64
2022-09-05T22:35:26.831Z,17.49
2022-09-05T22:37:55.308Z,17.18
2022-09-05T22:40:28.001Z,17.18
2022-09-05T22:42:55.933Z,17.06
2022-09-05T22:45:22.593Z,17.00
2022-09-05T22:47:49.071Z,16.95
2022-09-05T22:50:15.526Z,16.76
2022-09-05T22:52:42.151Z,16.73
2022-09-05T22:55:09.200Z,16.79
2022-09-05T22:57:38.175Z,17.10
2022-09-05T23:00:05.634Z,17.00
2022-09-05T23:02:32.066Z,17.01
2022-09-05T23:04:58.492Z,17.02
2022-09-05T23:07:24.975Z,17.17
2022-09-05T23:09:51.483Z,17.28
2022-09-05T23:12:17.979Z,17.28
2022-09-05T23:14:44.522Z,17.11
2022-09-05T23:17:13.174Z,17.09
2022-09-05T23:19:39.666Z,17.12
2022-09-05T23:22:06.374Z,17.23
2022-09-05T23:24:32.899Z,17.18
2022-09-05T23:26:59.764Z,17.12
2022-09-05T23:29:26.319Z,17.14
2022-09-05T23:31:52.887Z,17.13
2022-09-05T23:34:19.519Z,17.09
2022-09-05T23:36:45.962Z,17.17
2022-09-05T23:39:13.035Z,16.97
2022-09-05T23:41:39.475Z,16.78
2022-09-05T23:44:05.894Z,16.55
2022-09-05T23:46:32.419Z,16.70
2022-09-05T23:48:58.902Z,16.70
2022-09-05T23:51:25.419Z,16.88
2022-09-05T23:53:51.918Z,16.96
2022-09-05T23:56:18.517Z,16.98
2022-09-05T23:58:45.607Z,17.05
